createdAt,value
2024-02-24T00:00:36.575Z,8.25
2024-02-24T00:03:24.839Z,8.56
2024-02-24T00:05:53.489Z,8.57
2024-02-24T00:08:21.537Z,8.17
2024-02-24T00:10:50.162Z,8.14
2024-02-24T00:13:18.175Z,8.04
2024-02-24T00:15:46.659Z,7.85
2024-02-24T00:18:14.959Z,8.06
2024-02-24T00:20:43.534Z,8.15
2024-02-24T00:26:18.252Z,8.12
2024-02-24T00:28:47.005Z,8.29
2024-02-24T00:31:15.173Z,8.30
2024-02-24T00:33:44.804Z,8.14
2024-02-24T00:36:13.068Z,8.15
2024-02-24T00:38:41.516Z,8.04
2024-02-24T00:41:09.518Z,7.57
2024-02-24T00:43:37.980Z,7.47
2024-02-24T00:46:06.080Z,7.61
2024-02-24T00:48:34.543Z,7.67
2024-02-24T00:51:02.487Z,7.36
2024-02-24T00:53:30.912Z,7.42
2024-02-24T00:55:58.985Z,7.85
2024-02-24T00:58:27.296Z,8.05
2024-02-24T01:00:55.313Z,7.82
2024-02-24T01:03:23.609Z,7.65
2024-02-24T01:05:51.859Z,7.73
2024-02-24T01:08:20.573Z,7.48
2024-02-24T01:10:49.303Z,7.56
2024-02-24T01:13:17.758Z,7.53
2024-02-24T01:15:45.872Z,7.64
2024-02-24T01:18:14.540Z,7.53
2024-02-24T01:20:42.841Z,7.50
2024-02-24T01:23:11.168Z,7.55
2024-02-24T01:25:39.285Z,7.66
2024-02-24T01:28:07.492Z,7.68
2024-02-24T01:30:38.496Z,7.83
2024-02-24T01:33:07.347Z,7.63
2024-02-24T01:35:36.960Z,8.00
2024-02-24T01:38:09.023Z,8.13
2024-02-24T01:40:36.998Z,8.24
2024-02-24T01:43:30.791Z,7.94
2024-02-24T01:45:59.061Z,8.06
2024-02-24T01:48:27.458Z,8.19
2024-02-24T01:50:56.321Z,8.10
2024-02-24T01:53:25.675Z,8.14
2024-02-24T01:55:55.313Z,8.09
2024-02-24T01:58:25.166Z,8.09
2024-02-24T02:00:56.231Z,8.03
2024-02-24T02:03:24.973Z,7.91
2024-02-24T02:05:52.996Z,8.02
2024-02-24T02:08:21.570Z,7.99
2024-02-24T02:10:56.558Z,8.07
2024-02-24T02:13:25.554Z,7.93
2024-02-24T02:15:55.614Z,7.93
2024-02-24T02:18:24.245Z,8.06
2024-02-24T02:21:12.701Z,7.85
2024-02-24T02:23:41.207Z,7.86
2024-02-24T02:26:09.170Z,8.04
2024-02-24T02:28:37.522Z,7.64
2024-02-24T02:31:05.431Z,7.65
2024-02-24T02:33:34.347Z,7.71
2024-02-24T02:36:03.226Z,7.68
2024-02-24T02:38:31.591Z,7.62
2024-02-24T02:40:59.841Z,7.46
2024-02-24T02:43:28.561Z,7.63
2024-02-24T02:45:56.519Z,7.44
2024-02-24T02:48:24.989Z,7.40
2024-02-24T02:50:53.058Z,7.44
2024-02-24T02:53:21.729Z,7.38
2024-02-24T02:55:49.641Z,7.40
2024-02-24T02:58:18.087Z,7.38
2024-02-24T03:00:48.567Z,7.59
2024-02-24T03:03:19.748Z,7.71
2024-02-24T03:05:47.820Z,7.63
2024-02-24T03:08:16.134Z,7.92
2024-02-24T03:10:44.524Z,7.96
2024-02-24T03:13:13.430Z,8.09
2024-02-24T03:15:41.396Z,8.02
2024-02-24T03:18:09.795Z,8.01
2024-02-24T03:20:38.826Z,7.79
2024-02-24T03:23:08.022Z,7.87
2024-02-24T03:25:36.259Z,7.94
2024-02-24T03:28:05.593Z,7.88
2024-02-24T03:30:33.486Z,7.59
2024-02-24T03:33:01.955Z,7.80
2024-02-24T03:35:30.047Z,7.88
2024-02-24T03:37:59.456Z,7.81
2024-02-24T03:40:27.447Z,7.59
2024-02-24T03:42:55.707Z,7.82
2024-02-24T03:45:23.826Z,7.74
2024-02-24T03:47:52.959Z,7.96
2024-02-24T03:50:21.154Z,8.00
2024-02-24T03:52:49.617Z,7.92
2024-02-24T03:55:17.713Z,7.96
2024-02-24T03:57:48.789Z,7.99
2024-02-24T04:00:22.082Z,7.93
2024-02-24T04:02:57.648Z,7.81
2024-02-24T04:05:30.707Z,7.62
2024-02-24T04:08:03.444Z,7.64
2024-02-24T04:10:35.161Z,7.60
2024-02-24T04:13:05.450Z,7.74
2024-02-24T04:15:33.535Z,7.49
2024-02-24T04:18:02.426Z,7.56
2024-02-24T04:20:30.750Z,7.18
2024-02-24T04:22:59.113Z,7.50
2024-02-24T04:25:27.164Z,7.41
2024-02-24T04:27:55.329Z,7.64
2024-02-24T04:30:23.328Z,7.57
2024-02-24T04:32:51.666Z,7.78
2024-02-24T04:35:19.962Z,7.78
2024-02-24T04:37:48.228Z,7.58
2024-02-24T04:40:16.672Z,7.78
2024-02-24T04:42:46.260Z,7.84
2024-02-24T04:45:14.587Z,7.77
2024-02-24T04:47:43.408Z,7.87
2024-02-24T04:50:11.617Z,8.13
2024-02-24T04:52:39.985Z,8.18
2024-02-24T04:55:08.398Z,7.88
2024-02-24T04:57:36.546Z,7.80
2024-02-24T05:00:04.977Z,8.07
2024-02-24T05:02:33.758Z,8.22
2024-02-24T05:05:01.853Z,8.19
2024-02-24T05:07:31.169Z,8.29
2024-02-24T05:09:59.187Z,8.37
2024-02-24T05:12:27.436Z,8.12
2024-02-24T05:14:55.770Z,8.26
2024-02-24T05:17:24.091Z,8.16
2024-02-24T05:19:52.986Z,8.27
2024-02-24T05:22:21.243Z,8.23
2024-02-24T05:24:49.664Z,8.35
2024-02-24T05:27:19.711Z,8.30
2024-02-24T05:29:48.231Z,8.19
2024-02-24T05:32:18.410Z,8.21
2024-02-24T05:34:46.518Z,8.30
2024-02-24T05:37:15.357Z,8.48
2024-02-24T05:39:43.405Z,8.48
2024-02-24T05:42:11.808Z,8.39
2024-02-24T05:44:39.878Z,8.49
2024-02-24T05:47:08.695Z,8.36
2024-02-24T05:49:36.686Z,8.42
2024-02-24T05:52:05.791Z,8.45
2024-02-24T05:54:33.878Z,8.23
2024-02-24T05:57:05.983Z,8.20
2024-02-24T05:59:33.981Z,8.31
2024-02-24T06:02:02.487Z,8.21
2024-02-24T06:04:31.036Z,8.30
2024-02-24T06:06:59.422Z,8.13
2024-02-24T06:09:27.584Z,8.29
2024-02-24T06:11:55.958Z,8.23
2024-02-24T06:14:24.223Z,8.26
2024-02-24T06:16:52.564Z,8.23
2024-02-24T06:19:21.354Z,8.00
2024-02-24T06:21:49.704Z,8.19
2024-02-24T06:24:17.795Z,8.08
2024-02-24T06:26:46.284Z,8.25
2024-02-24T06:29:17.475Z,8.27
2024-02-24T06:31:45.917Z,8.19
2024-02-24T06:34:13.813Z,8.25
2024-02-24T06:36:42.322Z,8.19
2024-02-24T06:39:10.191Z,8.36
2024-02-24T06:41:38.846Z,7.90
2024-02-24T06:44:07.923Z,7.69
2024-02-24T06:46:36.288Z,7.53
2024-02-24T06:49:04.617Z,7.63
2024-02-24T06:51:33.134Z,7.56
2024-02-24T06:54:01.106Z,7.60
2024-02-24T06:56:29.594Z,7.65
2024-02-24T06:59:00.074Z,7.70
2024-02-24T07:01:28.457Z,7.50
2024-02-24T07:03:59.099Z,7.30
2024-02-24T07:06:30.590Z,7.40
2024-02-24T07:08:58.866Z,7.60
2024-02-24T07:11:30.297Z,7.68
2024-02-24T07:13:58.451Z,7.45
2024-02-24T07:16:28.970Z,7.55
2024-02-24T07:18:57.101Z,7.82
2024-02-24T07:21:26.057Z,7.75
2024-02-24T07:23:57.028Z,7.83
2024-02-24T07:26:25.457Z,8.01
2024-02-24T07:28:53.341Z,7.92
2024-02-24T07:31:21.941Z,7.89
2024-02-24T07:33:49.991Z,7.97
2024-02-24T08:42:19.147Z,9.21
2024-02-24T08:44:53.729Z,9.20
2024-02-24T08:47:25.984Z,9.23
2024-02-24T08:49:58.250Z,9.28
2024-02-24T08:52:35.651Z,9.27
2024-02-24T08:55:12.296Z,9.41
2024-02-24T08:57:40.166Z,9.46
2024-02-24T09:00:10.133Z,9.62
2024-02-24T09:02:38.366Z,9.56
2024-02-24T09:05:07.517Z,9.33
2024-02-24T09:07:35.644Z,9.32
2024-02-24T09:10:07.086Z,9.11
2024-02-24T09:12:36.214Z,9.37
2024-02-24T09:15:05.254Z,9.53
2024-02-24T09:17:33.455Z,9.72
2024-02-24T09:20:02.600Z,9.80
2024-02-24T09:22:32.329Z,9.73
2024-02-24T09:25:00.626Z,9.77
2024-02-24T09:27:28.933Z,9.82
2024-02-24T09:29:57.267Z,9.93
2024-02-24T09:32:25.312Z,9.98
2024-02-24T09:34:53.725Z,10.15
2024-02-24T09:37:21.714Z,10.17
2024-02-24T09:39:50.316Z,10.19
2024-02-24T09:42:18.188Z,9.83
2024-02-24T09:44:46.570Z,9.85
2024-02-24T09:47:14.977Z,9.90
2024-02-24T09:49:44.911Z,9.79
2024-02-24T09:52:12.936Z,9.85
2024-02-24T09:54:41.197Z,9.74
2024-02-24T09:57:11.215Z,9.70
2024-02-24T09:59:39.739Z,9.61
2024-02-24T10:02:07.717Z,9.71
2024-02-24T10:04:36.064Z,9.70
2024-02-24T10:07:22.829Z,9.71
2024-02-24T10:09:51.278Z,9.83
2024-02-24T10:12:19.325Z,9.88
2024-02-24T10:14:50.306Z,9.79
2024-02-24T10:17:18.966Z,9.88
2024-02-24T10:19:47.937Z,9.83
2024-02-24T10:22:19.075Z,10.07
2024-02-24T10:24:47.639Z,10.10
2024-02-24T10:27:18.614Z,9.81
2024-02-24T10:29:54.091Z,9.09
2024-02-24T10:32:23.874Z,8.97
2024-02-24T10:34:54.082Z,9.11
2024-02-24T10:37:22.367Z,9.19
2024-02-24T10:39:51.453Z,9.29
2024-02-24T10:42:23.837Z,9.11
2024-02-24T10:44:53.549Z,9.11
2024-02-24T10:47:22.029Z,8.76
2024-02-24T10:49:50.652Z,8.91
2024-02-24T10:52:20.624Z,8.63
2024-02-24T10:54:51.638Z,8.61
2024-02-24T10:57:21.150Z,8.80
2024-02-24T10:59:49.883Z,9.01
2024-02-24T11:02:18.612Z,8.94
2024-02-24T11:04:47.036Z,9.02
2024-02-24T11:07:20.022Z,8.94
2024-02-24T11:09:53.201Z,8.83
2024-02-24T11:12:25.363Z,8.83
2024-02-24T11:14:56.124Z,8.80
2024-02-24T11:17:53.701Z,8.88
2024-02-24T11:20:41.331Z,8.91
2024-02-24T11:23:27.898Z,8.75
2024-02-24T11:26:17.759Z,8.87
2024-02-24T11:29:00.224Z,9.06
2024-02-24T11:31:35.859Z,9.25
2024-02-24T11:34:07.524Z,9.32
2024-02-24T11:36:39.531Z,9.18
2024-02-24T11:39:09.943Z,8.74
2024-02-24T11:41:38.803Z,8.74
2024-02-24T11:44:10.046Z,8.70
2024-02-24T11:46:38.464Z,8.80
2024-02-24T11:49:06.592Z,8.79
2024-02-24T11:51:36.090Z,8.91
2024-02-24T11:54:05.175Z,8.70
2024-02-24T11:56:34.004Z,8.55
2024-02-24T11:59:02.591Z,8.96
2024-02-24T12:01:31.205Z,9.12
2024-02-24T12:04:01.088Z,9.08
2024-02-24T12:06:32.337Z,9.10
2024-02-24T12:09:01.930Z,8.92
2024-02-24T12:11:30.742Z,9.11
2024-02-24T12:13:58.748Z,9.07
2024-02-24T12:16:29.261Z,9.17
2024-02-24T12:18:59.105Z,8.94
2024-02-24T12:21:29.031Z,8.93
2024-02-24T12:24:00.818Z,9.09
2024-02-24T12:26:29.481Z,9.09
2024-02-24T12:28:57.639Z,9.13
2024-02-24T12:31:26.287Z,8.84
2024-02-24T12:33:54.460Z,9.13
2024-02-24T12:36:26.265Z,9.13
2024-02-24T12:38:54.302Z,8.83
2024-02-24T12:41:22.959Z,8.88
2024-02-24T12:43:51.105Z,8.56
2024-02-24T12:46:23.870Z,8.88
2024-02-24T12:48:52.500Z,9.01
2024-02-24T12:51:22.306Z,8.94
2024-02-24T12:53:50.501Z,8.69
2024-02-24T12:56:18.983Z,8.80
2024-02-24T12:58:47.256Z,8.76
2024-02-24T13:01:16.094Z,8.77
2024-02-24T13:03:44.314Z,8.90
2024-02-24T13:06:12.942Z,8.93
2024-02-24T13:08:41.191Z,8.83
2024-02-24T13:11:10.568Z,8.82
2024-02-24T13:13:38.722Z,8.82
2024-02-24T13:16:07.019Z,8.72
2024-02-24T13:18:35.924Z,9.07
2024-02-24T13:21:04.782Z,9.15
2024-02-24T13:23:33.309Z,9.27
2024-02-24T13:26:01.655Z,9.30
2024-02-24T13:28:29.631Z,9.10
2024-02-24T13:30:57.901Z,8.96
2024-02-24T13:33:26.120Z,9.15
2024-02-24T13:35:54.751Z,9.16
2024-02-24T13:38:22.757Z,8.97
2024-02-24T13:40:51.087Z,9.04
2024-02-24T13:43:19.292Z,8.85
2024-02-24T13:45:47.672Z,8.58
2024-02-24T13:48:16.022Z,8.40
2024-02-24T13:50:44.376Z,8.34
2024-02-24T13:53:12.754Z,8.38
2024-02-24T13:55:41.426Z,8.52
2024-02-24T13:58:09.510Z,8.57
2024-02-24T14:00:37.875Z,8.62
2024-02-24T14:03:06.164Z,8.59
2024-02-24T14:05:34.900Z,8.68
2024-02-24T14:08:04.575Z,8.70
2024-02-24T14:10:34.818Z,8.62
2024-02-24T14:13:03.006Z,8.50
2024-02-24T14:15:34.208Z,8.70
2024-02-24T14:18:02.922Z,8.63
2024-02-24T14:20:35.633Z,8.41
2024-02-24T14:23:03.919Z,8.43
2024-02-24T14:25:35.710Z,8.48
2024-02-24T14:28:14.426Z,8.39
2024-02-24T14:30:47.813Z,8.14
2024-02-24T14:33:16.342Z,8.17
2024-02-24T14:35:44.752Z,7.95
2024-02-24T14:38:13.123Z,8.09
2024-02-24T14:40:41.469Z,8.15
2024-02-24T14:43:09.370Z,8.10
2024-02-24T14:45:37.844Z,8.36
2024-02-24T14:48:06.712Z,8.26
2024-02-24T14:50:35.500Z,8.45
2024-02-24T14:53:03.621Z,8.45
2024-02-24T14:55:31.934Z,8.46
2024-02-24T14:57:59.805Z,8.70
2024-02-24T15:00:28.662Z,8.67
2024-02-24T15:03:08.646Z,8.78
2024-02-24T15:05:39.541Z,8.81
2024-02-24T15:08:08.051Z,8.69
2024-02-24T15:10:36.631Z,8.71
2024-02-24T15:13:05.566Z,8.70
2024-02-24T15:15:34.394Z,8.69
2024-02-24T15:18:06.303Z,8.80
2024-02-24T15:20:34.718Z,8.46
2024-02-24T15:23:02.811Z,8.56
2024-02-24T15:25:31.194Z,8.47
2024-02-24T15:28:00.206Z,8.68
2024-02-24T15:30:31.037Z,8.80
2024-02-24T15:32:59.709Z,8.94
2024-02-24T15:35:29.095Z,8.98
2024-02-24T15:37:59.035Z,9.00
2024-02-24T15:40:29.530Z,8.80
2024-02-24T15:42:58.757Z,8.88
2024-02-24T15:45:27.115Z,8.56
2024-02-24T15:47:55.337Z,8.84
2024-02-24T15:50:24.564Z,8.84
2024-02-24T15:52:52.559Z,8.47
2024-02-24T15:55:20.861Z,8.62
2024-02-24T15:57:50.247Z,8.72
2024-02-24T16:00:18.417Z,8.23
2024-02-24T16:02:46.967Z,8.59
2024-02-24T16:05:18.381Z,8.63
2024-02-24T16:07:46.859Z,8.83
2024-02-24T16:10:16.574Z,8.80
2024-02-24T16:12:45.071Z,8.75
2024-02-24T16:15:13.472Z,8.62
2024-02-24T16:17:41.937Z,8.76
2024-02-24T16:20:10.450Z,8.65
2024-02-24T16:22:42.991Z,8.77
2024-02-24T16:25:14.565Z,8.67
2024-02-24T16:27:43.886Z,8.41
2024-02-24T16:30:12.845Z,8.03
2024-02-24T16:32:42.114Z,8.26
2024-02-24T16:35:10.136Z,8.19
2024-02-24T16:37:39.893Z,8.30
2024-02-24T16:40:09.457Z,8.17
2024-02-24T16:42:39.214Z,8.41
2024-02-24T16:45:08.575Z,8.24
2024-02-24T16:47:37.493Z,8.34
2024-02-24T16:50:07.379Z,8.49
2024-02-24T16:52:35.953Z,8.55
2024-02-24T16:55:05.433Z,8.26
2024-02-24T16:57:33.865Z,7.92
2024-02-24T17:00:02.268Z,8.15
2024-02-24T17:02:32.277Z,8.33
2024-02-24T17:05:00.319Z,8.27
2024-02-24T17:07:29.039Z,8.32
2024-02-24T17:09:58.300Z,8.25
2024-02-24T17:12:26.878Z,8.02
2024-02-24T17:14:55.081Z,8.24
2024-02-24T17:17:24.529Z,8.28
2024-02-24T17:19:52.645Z,8.20
2024-02-24T17:22:21.217Z,8.25
2024-02-24T17:24:49.410Z,8.07
2024-02-24T17:31:51.168Z,7.87
2024-02-24T17:34:22.356Z,7.61
2024-02-24T17:36:53.182Z,7.30
2024-02-24T17:39:22.630Z,7.39
2024-02-24T17:41:52.505Z,7.20
2024-02-24T17:44:21.097Z,7.26
2024-02-24T17:46:49.349Z,7.44
2024-02-24T17:49:18.182Z,7.21
2024-02-24T17:51:46.530Z,7.25
2024-02-24T17:54:14.679Z,7.30
2024-02-24T17:56:43.837Z,7.27
2024-02-24T17:59:13.396Z,7.34
2024-02-24T18:04:57.448Z,7.40
2024-02-24T18:07:28.258Z,7.39
2024-02-24T18:09:56.248Z,7.46
2024-02-24T18:12:25.259Z,7.51
2024-02-24T18:14:54.092Z,7.35
2024-02-24T18:17:22.922Z,7.40
2024-02-24T18:19:50.850Z,7.32
2024-02-24T18:22:19.392Z,6.92
2024-02-24T18:24:47.470Z,7.29
2024-02-24T18:27:15.927Z,7.35
2024-02-24T18:29:45.796Z,7.45
2024-02-24T18:32:14.353Z,7.57
2024-02-24T18:34:42.569Z,7.42
2024-02-24T18:37:12.273Z,7.25
2024-02-24T18:39:42.328Z,7.35
2024-02-24T18:42:10.744Z,7.69
2024-02-24T18:44:39.639Z,7.38
2024-02-24T18:47:08.335Z,7.35
2024-02-24T18:49:36.780Z,7.57
2024-02-24T18:52:07.262Z,7.35
2024-02-24T18:54:35.326Z,7.39
2024-02-24T18:57:04.794Z,7.52
2024-02-24T18:59:33.857Z,7.65
2024-02-24T19:02:02.208Z,7.67
2024-02-24T19:04:30.405Z,7.66
2024-02-24T19:06:58.612Z,7.51
2024-02-24T19:09:26.823Z,7.36
2024-02-24T19:11:55.380Z,7.66
2024-02-24T19:14:23.647Z,7.85
2024-02-24T19:16:52.146Z,7.62
2024-02-24T19:19:20.389Z,7.56
2024-02-24T19:21:48.875Z,7.50
2024-02-24T19:24:17.220Z,7.59
2024-02-24T19:26:45.677Z,7.48
2024-02-24T19:29:15.539Z,7.44
2024-02-24T19:31:43.878Z,7.42
2024-02-24T19:34:14.461Z,7.42
2024-02-24T19:36:43.008Z,7.52
2024-02-24T19:39:16.358Z,7.50
2024-02-24T19:41:47.789Z,7.13
2024-02-24T19:44:16.753Z,7.41
2024-02-24T19:46:45.129Z,7.45
2024-02-24T19:49:13.385Z,7.49
2024-02-24T19:51:41.859Z,7.64
2024-02-24T19:54:09.982Z,7.57
2024-02-24T19:56:38.363Z,7.52
2024-02-24T19:59:06.315Z,7.44
2024-02-24T20:01:34.793Z,7.42
2024-02-24T20:04:02.714Z,7.66
2024-02-24T20:06:31.392Z,7.61
2024-02-24T20:08:59.909Z,7.71
2024-02-24T20:11:28.558Z,7.54
2024-02-24T20:13:56.830Z,7.53
2024-02-24T20:16:25.576Z,7.53
2024-02-24T20:18:53.696Z,7.73
2024-02-24T20:21:22.093Z,7.45
2024-02-24T20:23:50.092Z,7.47
2024-02-24T20:26:18.994Z,7.42
2024-02-24T20:28:46.826Z,7.07
2024-02-24T20:31:15.354Z,7.17
2024-02-24T20:33:53.355Z,7.11
2024-02-24T20:36:28.821Z,7.54
2024-02-24T20:38:59.789Z,7.71
2024-02-24T20:41:30.519Z,7.74
2024-02-24T20:43:59.300Z,7.66
2024-02-24T20:46:27.615Z,7.76
2024-02-24T20:48:55.704Z,7.89
2024-02-24T20:51:24.001Z,7.57
2024-02-24T20:53:53.189Z,7.87
2024-02-24T20:56:22.923Z,7.82
2024-02-24T20:58:50.876Z,7.88
2024-02-24T21:01:19.157Z,7.76
2024-02-24T21:03:47.301Z,7.79
2024-02-24T21:06:15.792Z,7.69
2024-02-24T21:08:44.441Z,7.60
2024-02-24T21:11:12.709Z,7.85
2024-02-24T21:13:40.812Z,7.60
2024-02-24T21:16:09.162Z,7.71
2024-02-24T21:18:37.375Z,7.72
2024-02-24T21:21:06.152Z,7.94
2024-02-24T21:23:34.495Z,7.98
2024-02-24T21:26:07.310Z,7.84
2024-02-24T21:28:35.143Z,8.11
2024-02-24T21:31:03.876Z,7.75
2024-02-24T21:33:32.285Z,7.76
2024-02-24T21:36:00.700Z,7.64
2024-02-24T21:38:31.573Z,7.62
2024-02-24T21:41:00.322Z,7.92
2024-02-24T21:43:28.371Z,7.35
2024-02-24T21:45:56.690Z,7.46
2024-02-24T21:48:24.724Z,7.60
2024-02-24T21:50:53.384Z,7.46
2024-02-24T21:53:21.268Z,7.35
2024-02-24T21:55:49.675Z,7.45
2024-02-24T21:58:18.557Z,7.49
2024-02-24T22:00:49.754Z,7.66
2024-02-24T22:03:19.203Z,7.80
2024-02-24T22:05:48.070Z,7.88
2024-02-24T22:08:16.288Z,7.65
2024-02-24T22:10:44.699Z,7.82
2024-02-24T22:13:13.404Z,7.60
2024-02-24T22:15:41.848Z,7.53
2024-02-24T22:18:09.958Z,7.47
2024-02-24T22:20:38.544Z,7.71
2024-02-24T22:23:06.463Z,7.62
2024-02-24T22:25:34.974Z,7.69
2024-02-24T22:28:02.877Z,7.30
2024-02-24T22:30:31.468Z,7.55
2024-02-24T22:32:59.629Z,7.73
2024-02-24T22:35:28.201Z,7.67
2024-02-24T22:37:56.214Z,7.63
2024-02-24T22:40:24.703Z,7.86
2024-02-24T22:42:52.740Z,7.79
2024-02-24T22:45:21.332Z,7.66
2024-02-24T22:47:49.780Z,7.85
2024-02-24T22:50:18.496Z,7.46
2024-02-24T22:52:46.449Z,7.53
2024-02-24T22:55:14.922Z,7.70
2024-02-24T22:57:43.063Z,7.71
2024-02-24T23:00:15.018Z,7.86
2024-02-24T23:02:43.757Z,7.57
2024-02-24T23:05:12.036Z,7.67
2024-02-24T23:07:40.158Z,7.71
2024-02-24T23:10:10.927Z,7.52
2024-02-24T23:12:40.176Z,7.46
2024-02-24T23:15:09.095Z,7.68
2024-02-24T23:17:39.722Z,7.79
2024-02-24T23:20:08.804Z,7.95
2024-02-24T23:22:36.821Z,7.86
2024-02-24T23:25:05.549Z,7.63
2024-02-24T23:27:33.451Z,7.37
2024-02-24T23:30:02.151Z,7.70
2024-02-24T23:32:31.772Z,7.88
2024-02-24T23:35:00.161Z,7.21
2024-02-24T23:37:28.335Z,7.39
2024-02-24T23:39:56.676Z,7.61
2024-02-24T23:42:24.541Z,7.76
2024-02-24T23:44:53.102Z,7.63
2024-02-24T23:47:21.705Z,7.82
2024-02-24T23:49:49.863Z,7.83
2024-02-24T23:52:18.483Z,7.78
2024-02-24T23:54:46.677Z,7.74
2024-02-24T23:57:15.331Z,7.84
2024-02-24T23:59:43.343Z,7.79
